Terminal Aerodrome Forecast
Issued by NWS Pittsburgh, PA

Current Version | Previous Version | Graphics & Text | Print | Product List | Glossary On
Versions: 1 2 3 4 5 6 7 8 9 10 11 12 13 14 15 16 17 18 19 20 21 22 23 24 25 26 27 28 29
137
FTUS41 KPBZ 230850 AAA
TAFPIT
TAF AMD
KPIT 230850Z 2309/2412 24005KT 6SM BR BKN006
     FM231300 23003KT P6SM BKN015
     FM231430 23004KT P6SM BKN050
     FM240100 25005KT P6SM -SHRA VCTS BKN035CB
     FM240500 25004KT P6SM BKN030
     FM240700 26004KT P6SM BKN015
     FM240900 28004KT 4SM BR BKN008=

USA.gov is the U.S. government's official web portal to all federal, state and local government web resources and services.